sensor_id;sensor_type;location;lat;lon;timestamp;P1;durP1;ratioP1;P2;durP2;ratioP2
56037;SDS011;41907;47.848;9.000;2024-03-25T00:00:28;4.93;;;1.38;;
56037;SDS011;41907;47.848;9.000;2024-03-25T00:02:54;2.65;;;1.10;;
56037;SDS011;41907;47.848;9.000;2024-03-25T00:05:20;1.88;;;1.15;;
56037;SDS011;41907;47.848;9.000;2024-03-25T00:07:47;3.47;;;1.30;;
56037;SDS011;41907;47.848;9.000;2024-03-25T00:10:14;1.55;;;1.15;;
56037;SDS011;41907;47.848;9.000;2024-03-25T00:12:39;2.90;;;1.40;;
56037;SDS011;41907;47.848;9.000;2024-03-25T00:15:05;2.42;;;1.30;;
56037;SDS011;41907;47.848;9.000;2024-03-25T00:17:30;2.08;;;1.70;;
56037;SDS011;41907;47.848;9.000;2024-03-25T00:19:56;3.97;;;2.35;;
56037;SDS011;41907;47.848;9.000;2024-03-25T00:22:21;6.75;;;3.72;;
56037;SDS011;41907;47.848;9.000;2024-03-25T00:24:50;5.13;;;3.17;;
56037;SDS011;41907;47.848;9.000;2024-03-25T00:27:16;5.35;;;2.83;;
56037;SDS011;41907;47.848;9.000;2024-03-25T00:29:42;4.57;;;3.00;;
56037;SDS011;41907;47.848;9.000;2024-03-25T00:32:07;5.40;;;2.90;;
56037;SDS011;41907;47.848;9.000;2024-03-25T00:34:33;10.23;;;5.32;;
56037;SDS011;41907;47.848;9.000;2024-03-25T00:36:58;8.13;;;4.97;;
56037;SDS011;41907;47.848;9.000;2024-03-25T00:39:24;14.85;;;9.13;;
56037;SDS011;41907;47.848;9.000;2024-03-25T00:41:51;14.07;;;8.30;;
56037;SDS011;41907;47.848;9.000;2024-03-25T00:44:16;15.68;;;10.13;;
56037;SDS011;41907;47.848;9.000;2024-03-25T00:46:42;14.07;;;9.38;;
56037;SDS011;41907;47.848;9.000;2024-03-25T00:49:07;14.35;;;8.07;;
56037;SDS011;41907;47.848;9.000;2024-03-25T00:51:34;11.68;;;7.70;;
56037;SDS011;41907;47.848;9.000;2024-03-25T00:53:59;14.43;;;7.45;;
56037;SDS011;41907;47.848;9.000;2024-03-25T00:56:24;18.80;;;10.30;;
56037;SDS011;41907;47.848;9.000;2024-03-25T00:58:50;8.57;;;5.22;;
56037;SDS011;41907;47.848;9.000;2024-03-25T01:01:15;3.95;;;2.30;;
56037;SDS011;41907;47.848;9.000;2024-03-25T01:03:40;4.53;;;2.33;;
56037;SDS011;41907;47.848;9.000;2024-03-25T01:06:06;2.53;;;1.75;;
56037;SDS011;41907;47.848;9.000;2024-03-25T01:08:31;8.07;;;2.47;;
56037;SDS011;41907;47.848;9.000;2024-03-25T01:10:56;7.00;;;3.25;;
56037;SDS011;41907;47.848;9.000;2024-03-25T01:13:22;4.03;;;2.38;;
56037;SDS011;41907;47.848;9.000;2024-03-25T01:15:47;7.50;;;5.60;;
56037;SDS011;41907;47.848;9.000;2024-03-25T01:18:13;10.68;;;5.03;;
56037;SDS011;41907;47.848;9.000;2024-03-25T01:20:38;9.50;;;5.65;;
56037;SDS011;41907;47.848;9.000;2024-03-25T01:23:04;7.75;;;5.10;;
56037;SDS011;41907;47.848;9.000;2024-03-25T01:25:30;10.20;;;6.18;;
56037;SDS011;41907;47.848;9.000;2024-03-25T01:27:55;8.35;;;5.57;;
56037;SDS011;41907;47.848;9.000;2024-03-25T01:30:21;11.70;;;5.80;;
56037;SDS011;41907;47.848;9.000;2024-03-25T01:32:47;8.25;;;5.63;;
56037;SDS011;41907;47.848;9.000;2024-03-25T01:35:13;9.35;;;5.35;;
56037;SDS011;41907;47.848;9.000;2024-03-25T01:37:40;6.13;;;4.20;;
56037;SDS011;41907;47.848;9.000;2024-03-25T01:40:06;9.70;;;5.45;;
56037;SDS011;41907;47.848;9.000;2024-03-25T01:42:32;10.02;;;6.65;;
56037;SDS011;41907;47.848;9.000;2024-03-25T01:44:57;11.77;;;7.70;;
56037;SDS011;41907;47.848;9.000;2024-03-25T01:47:23;11.35;;;7.35;;
56037;SDS011;41907;47.848;9.000;2024-03-25T01:49:49;11.25;;;6.72;;
56037;SDS011;41907;47.848;9.000;2024-03-25T01:52:18;11.05;;;6.88;;
56037;SDS011;41907;47.848;9.000;2024-03-25T01:54:45;12.40;;;6.85;;
56037;SDS011;41907;47.848;9.000;2024-03-25T01:57:10;10.55;;;5.57;;
56037;SDS011;41907;47.848;9.000;2024-03-25T01:59:36;7.57;;;4.53;;
56037;SDS011;41907;47.848;9.000;2024-03-25T02:02:01;7.18;;;4.22;;
56037;SDS011;41907;47.848;9.000;2024-03-25T02:04:28;4.93;;;3.38;;
56037;SDS011;41907;47.848;9.000;2024-03-25T02:06:53;5.35;;;2.83;;
56037;SDS011;41907;47.848;9.000;2024-03-25T02:09:23;5.78;;;3.25;;
56037;SDS011;41907;47.848;9.000;2024-03-25T02:11:49;5.53;;;2.50;;
56037;SDS011;41907;47.848;9.000;2024-03-25T02:14:15;4.63;;;2.53;;
56037;SDS011;41907;47.848;9.000;2024-03-25T02:16:41;4.38;;;2.42;;
56037;SDS011;41907;47.848;9.000;2024-03-25T02:19:07;5.63;;;4.18;;
56037;SDS011;41907;47.848;9.000;2024-03-25T02:21:34;9.07;;;4.60;;
56037;SDS011;41907;47.848;9.000;2024-03-25T02:23:59;12.32;;;5.93;;
56037;SDS011;41907;47.848;9.000;2024-03-25T02:26:25;8.27;;;5.38;;
56037;SDS011;41907;47.848;9.000;2024-03-25T02:28:51;9.38;;;5.60;;
56037;SDS011;41907;47.848;9.000;2024-03-25T02:31:16;8.70;;;4.43;;
56037;SDS011;41907;47.848;9.000;2024-03-25T02:33:42;9.18;;;4.38;;
56037;SDS011;41907;47.848;9.000;2024-03-25T02:36:07;7.43;;;4.47;;
56037;SDS011;41907;47.848;9.000;2024-03-25T02:38:33;12.02;;;5.45;;
56037;SDS011;41907;47.848;9.000;2024-03-25T02:40:59;10.80;;;5.95;;
56037;SDS011;41907;47.848;9.000;2024-03-25T02:43:25;8.65;;;5.75;;
56037;SDS011;41907;47.848;9.000;2024-03-25T02:45:50;11.30;;;7.22;;
56037;SDS011;41907;47.848;9.000;2024-03-25T02:48:15;12.85;;;8.60;;
56037;SDS011;41907;47.848;9.000;2024-03-25T02:50:41;13.93;;;9.60;;
56037;SDS011;41907;47.848;9.000;2024-03-25T02:53:06;16.30;;;10.60;;
56037;SDS011;41907;47.848;9.000;2024-03-25T02:55:32;13.48;;;8.65;;
56037;SDS011;41907;47.848;9.000;2024-03-25T02:57:57;20.73;;;12.68;;
56037;SDS011;41907;47.848;9.000;2024-03-25T03:00:22;23.35;;;14.38;;
56037;SDS011;41907;47.848;9.000;2024-03-25T03:02:48;20.25;;;11.93;;
56037;SDS011;41907;47.848;9.000;2024-03-25T03:05:13;16.38;;;10.43;;
56037;SDS011;41907;47.848;9.000;2024-03-25T03:07:39;12.90;;;8.00;;
56037;SDS011;41907;47.848;9.000;2024-03-25T03:10:04;10.52;;;7.20;;
56037;SDS011;41907;47.848;9.000;2024-03-25T03:12:30;11.07;;;7.50;;
56037;SDS011;41907;47.848;9.000;2024-03-25T03:14:55;12.85;;;7.65;;
56037;SDS011;41907;47.848;9.000;2024-03-25T03:17:21;11.40;;;6.80;;
56037;SDS011;41907;47.848;9.000;2024-03-25T03:19:46;10.40;;;6.32;;
56037;SDS011;41907;47.848;9.000;2024-03-25T03:22:11;11.50;;;6.25;;
56037;SDS011;41907;47.848;9.000;2024-03-25T03:24:37;7.72;;;5.57;;
56037;SDS011;41907;47.848;9.000;2024-03-25T03:27:02;8.30;;;4.95;;
56037;SDS011;41907;47.848;9.000;2024-03-25T03:29:28;16.77;;;9.18;;
56037;SDS011;41907;47.848;9.000;2024-03-25T03:31:53;9.85;;;5.07;;
56037;SDS011;41907;47.848;9.000;2024-03-25T03:34:18;9.88;;;4.75;;
56037;SDS011;41907;47.848;9.000;2024-03-25T03:36:43;14.00;;;6.50;;
56037;SDS011;41907;47.848;9.000;2024-03-25T03:39:09;11.73;;;6.30;;
56037;SDS011;41907;47.848;9.000;2024-03-25T03:41:34;9.52;;;5.53;;
56037;SDS011;41907;47.848;9.000;2024-03-25T03:44:00;10.27;;;5.80;;
56037;SDS011;41907;47.848;9.000;2024-03-25T03:46:26;9.35;;;5.15;;
56037;SDS011;41907;47.848;9.000;2024-03-25T03:48:51;9.07;;;6.00;;
56037;SDS011;41907;47.848;9.000;2024-03-25T03:51:17;48.20;;;24.63;;
56037;SDS011;41907;47.848;9.000;2024-03-25T03:53:42;25.08;;;15.07;;
56037;SDS011;41907;47.848;9.000;2024-03-25T03:56:07;8.10;;;5.47;;
56037;SDS011;41907;47.848;9.000;2024-03-25T03:58:33;6.65;;;4.75;;
56037;SDS011;41907;47.848;9.000;2024-03-25T04:00:59;10.93;;;4.30;;
56037;SDS011;41907;47.848;9.000;2024-03-25T04:03:25;7.65;;;4.70;;
56037;SDS011;41907;47.848;9.000;2024-03-25T04:05:51;12.50;;;4.68;;
56037;SDS011;41907;47.848;9.000;2024-03-25T04:08:17;5.22;;;3.58;;
56037;SDS011;41907;47.848;9.000;2024-03-25T04:10:43;5.68;;;3.47;;
56037;SDS011;41907;47.848;9.000;2024-03-25T04:13:09;5.47;;;3.00;;
56037;SDS011;41907;47.848;9.000;2024-03-25T04:15:35;13.23;;;8.70;;
56037;SDS011;41907;47.848;9.000;2024-03-25T04:18:00;13.45;;;7.93;;
56037;SDS011;41907;47.848;9.000;2024-03-25T04:20:29;7.03;;;4.72;;
56037;SDS011;41907;47.848;9.000;2024-03-25T04:23:00;6.10;;;4.00;;
56037;SDS011;41907;47.848;9.000;2024-03-25T04:25:26;4.57;;;3.10;;
56037;SDS011;41907;47.848;9.000;2024-03-25T04:27:51;4.40;;;3.15;;
56037;SDS011;41907;47.848;9.000;2024-03-25T04:30:16;5.00;;;2.53;;
56037;SDS011;41907;47.848;9.000;2024-03-25T04:32:42;8.85;;;4.40;;
56037;SDS011;41907;47.848;9.000;2024-03-25T04:35:07;5.05;;;3.80;;
56037;SDS011;41907;47.848;9.000;2024-03-25T04:37:33;9.35;;;5.30;;
56037;SDS011;41907;47.848;9.000;2024-03-25T04:40:00;6.22;;;3.95;;
56037;SDS011;41907;47.848;9.000;2024-03-25T04:42:25;9.57;;;4.75;;
56037;SDS011;41907;47.848;9.000;2024-03-25T04:44:51;6.60;;;3.20;;
56037;SDS011;41907;47.848;9.000;2024-03-25T04:47:16;4.80;;;3.20;;
56037;SDS011;41907;47.848;9.000;2024-03-25T04:49:43;3.10;;;2.80;;
56037;SDS011;41907;47.848;9.000;2024-03-25T04:52:08;12.68;;;6.10;;
56037;SDS011;41907;47.848;9.000;2024-03-25T04:54:34;12.43;;;7.60;;
56037;SDS011;41907;47.848;9.000;2024-03-25T04:56:59;6.05;;;4.50;;
56037;SDS011;41907;47.848;9.000;2024-03-25T04:59:25;7.70;;;4.38;;
56037;SDS011;41907;47.848;9.000;2024-03-25T05:01:51;9.50;;;4.18;;
56037;SDS011;41907;47.848;9.000;2024-03-25T05:04:17;7.05;;;3.67;;
56037;SDS011;41907;47.848;9.000;2024-03-25T05:06:43;5.30;;;3.28;;
56037;SDS011;41907;47.848;9.000;2024-03-25T05:09:08;4.68;;;3.47;;
56037;SDS011;41907;47.848;9.000;2024-03-25T05:11:34;7.75;;;3.63;;
56037;SDS011;41907;47.848;9.000;2024-03-25T05:13:59;10.18;;;6.53;;
56037;SDS011;41907;47.848;9.000;2024-03-25T05:16:24;18.25;;;10.15;;
56037;SDS011;41907;47.848;9.000;2024-03-25T05:18:50;8.15;;;4.30;;
56037;SDS011;41907;47.848;9.000;2024-03-25T05:21:15;5.75;;;3.70;;
56037;SDS011;41907;47.848;9.000;2024-03-25T05:23:41;4.85;;;3.28;;
56037;SDS011;41907;47.848;9.000;2024-03-25T05:26:07;6.22;;;3.17;;
56037;SDS011;41907;47.848;9.000;2024-03-25T05:28:32;5.22;;;3.63;;
56037;SDS011;41907;47.848;9.000;2024-03-25T05:31:04;8.65;;;3.90;;
56037;SDS011;41907;47.848;9.000;2024-03-25T05:33:34;5.47;;;3.47;;
56037;SDS011;41907;47.848;9.000;2024-03-25T05:35:59;4.65;;;3.42;;
56037;SDS011;41907;47.848;9.000;2024-03-25T05:38:25;9.82;;;4.18;;
56037;SDS011;41907;47.848;9.000;2024-03-25T05:40:51;10.52;;;6.43;;
56037;SDS011;41907;47.848;9.000;2024-03-25T05:43:16;7.50;;;4.22;;
56037;SDS011;41907;47.848;9.000;2024-03-25T05:45:49;10.73;;;6.47;;
56037;SDS011;41907;47.848;9.000;2024-03-25T05:48:24;10.35;;;6.65;;
56037;SDS011;41907;47.848;9.000;2024-03-25T05:51:05;7.22;;;5.03;;
56037;SDS011;41907;47.848;9.000;2024-03-25T05:53:35;6.05;;;3.85;;
56037;SDS011;41907;47.848;9.000;2024-03-25T05:56:00;6.35;;;3.67;;
56037;SDS011;41907;47.848;9.000;2024-03-25T05:58:26;8.80;;;4.72;;
56037;SDS011;41907;47.848;9.000;2024-03-25T06:00:51;19.65;;;9.90;;
56037;SDS011;41907;47.848;9.000;2024-03-25T06:03:20;26.95;;;13.55;;
56037;SDS011;41907;47.848;9.000;2024-03-25T06:05:46;9.20;;;4.43;;
56037;SDS011;41907;47.848;9.000;2024-03-25T06:08:11;5.47;;;3.63;;
56037;SDS011;41907;47.848;9.000;2024-03-25T06:11:03;6.03;;;3.30;;
56037;SDS011;41907;47.848;9.000;2024-03-25T06:13:28;6.25;;;3.13;;
56037;SDS011;41907;47.848;9.000;2024-03-25T06:15:54;7.97;;;3.92;;
56037;SDS011;41907;47.848;9.000;2024-03-25T06:18:19;8.85;;;4.72;;
56037;SDS011;41907;47.848;9.000;2024-03-25T06:20:44;4.68;;;3.20;;
56037;SDS011;41907;47.848;9.000;2024-03-25T06:23:10;6.47;;;3.30;;
56037;SDS011;41907;47.848;9.000;2024-03-25T06:25:35;7.95;;;3.40;;
56037;SDS011;41907;47.848;9.000;2024-03-25T06:28:02;5.70;;;3.50;;
56037;SDS011;41907;47.848;9.000;2024-03-25T06:30:28;6.28;;;3.13;;
56037;SDS011;41907;47.848;9.000;2024-03-25T06:33:11;6.80;;;2.75;;
56037;SDS011;41907;47.848;9.000;2024-03-25T06:35:55;6.47;;;3.88;;
56037;SDS011;41907;47.848;9.000;2024-03-25T06:38:21;14.48;;;8.32;;
56037;SDS011;41907;47.848;9.000;2024-03-25T06:40:46;9.15;;;5.43;;
56037;SDS011;41907;47.848;9.000;2024-03-25T06:43:11;9.43;;;3.50;;
56037;SDS011;41907;47.848;9.000;2024-03-25T06:45:37;34.38;;;16.20;;
56037;SDS011;41907;47.848;9.000;2024-03-25T06:48:02;54.47;;;27.05;;
56037;SDS011;41907;47.848;9.000;2024-03-25T06:50:29;72.53;;;34.58;;
56037;SDS011;41907;47.848;9.000;2024-03-25T06:52:55;58.08;;;29.48;;
56037;SDS011;41907;47.848;9.000;2024-03-25T06:55:20;29.48;;;17.45;;
56037;SDS011;41907;47.848;9.000;2024-03-25T06:57:50;16.75;;;10.25;;
56037;SDS011;41907;47.848;9.000;2024-03-25T07:00:15;24.50;;;12.70;;
56037;SDS011;41907;47.848;9.000;2024-03-25T07:02:41;33.90;;;14.63;;
56037;SDS011;41907;47.848;9.000;2024-03-25T07:05:07;39.92;;;17.13;;
56037;SDS011;41907;47.848;9.000;2024-03-25T07:07:33;26.17;;;13.10;;
56037;SDS011;41907;47.848;9.000;2024-03-25T07:09:59;31.25;;;14.73;;
56037;SDS011;41907;47.848;9.000;2024-03-25T07:12:24;67.10;;;33.60;;
56037;SDS011;41907;47.848;9.000;2024-03-25T07:14:50;44.30;;;19.48;;
56037;SDS011;41907;47.848;9.000;2024-03-25T07:17:15;40.88;;;18.88;;
56037;SDS011;41907;47.848;9.000;2024-03-25T07:19:40;40.00;;;19.52;;
56037;SDS011;41907;47.848;9.000;2024-03-25T07:22:06;50.88;;;21.00;;
56037;SDS011;41907;47.848;9.000;2024-03-25T07:24:31;42.45;;;19.63;;
56037;SDS011;41907;47.848;9.000;2024-03-25T07:26:57;35.05;;;16.30;;
56037;SDS011;41907;47.848;9.000;2024-03-25T07:29:22;55.20;;;26.35;;
56037;SDS011;41907;47.848;9.000;2024-03-25T07:31:48;42.40;;;22.55;;
56037;SDS011;41907;47.848;9.000;2024-03-25T07:34:13;41.35;;;22.52;;
56037;SDS011;41907;47.848;9.000;2024-03-25T07:36:38;28.75;;;14.70;;
56037;SDS011;41907;47.848;9.000;2024-03-25T07:39:04;61.50;;;27.83;;
56037;SDS011;41907;47.848;9.000;2024-03-25T07:41:31;34.58;;;17.67;;
56037;SDS011;41907;47.848;9.000;2024-03-25T07:43:56;41.45;;;18.88;;
56037;SDS011;41907;47.848;9.000;2024-03-25T07:46:22;29.35;;;15.38;;
56037;SDS011;41907;47.848;9.000;2024-03-25T07:48:47;27.73;;;12.65;;
56037;SDS011;41907;47.848;9.000;2024-03-25T07:51:13;24.00;;;12.02;;
56037;SDS011;41907;47.848;9.000;2024-03-25T07:53:38;32.70;;;14.82;;
56037;SDS011;41907;47.848;9.000;2024-03-25T07:56:03;26.23;;;12.40;;
56037;SDS011;41907;47.848;9.000;2024-03-25T07:58:29;24.45;;;11.20;;
56037;SDS011;41907;47.848;9.000;2024-03-25T08:00:55;11.65;;;6.10;;
56037;SDS011;41907;47.848;9.000;2024-03-25T08:03:21;10.93;;;6.30;;
56037;SDS011;41907;47.848;9.000;2024-03-25T08:05:47;8.50;;;5.38;;
56037;SDS011;41907;47.848;9.000;2024-03-25T08:08:12;10.02;;;5.03;;
56037;SDS011;41907;47.848;9.000;2024-03-25T08:10:38;10.93;;;7.00;;
56037;SDS011;41907;47.848;9.000;2024-03-25T08:13:03;10.43;;;6.43;;
56037;SDS011;41907;47.848;9.000;2024-03-25T08:15:29;12.65;;;7.28;;
56037;SDS011;41907;47.848;9.000;2024-03-25T08:17:54;12.27;;;7.50;;
56037;SDS011;41907;47.848;9.000;2024-03-25T08:20:19;13.50;;;7.15;;
56037;SDS011;41907;47.848;9.000;2024-03-25T08:22:45;18.30;;;9.07;;
56037;SDS011;41907;47.848;9.000;2024-03-25T08:25:10;22.45;;;10.40;;
56037;SDS011;41907;47.848;9.000;2024-03-25T08:27:37;16.63;;;9.55;;
56037;SDS011;41907;47.848;9.000;2024-03-25T08:30:02;15.93;;;9.00;;
56037;SDS011;41907;47.848;9.000;2024-03-25T08:32:28;20.05;;;11.10;;
56037;SDS011;41907;47.848;9.000;2024-03-25T08:34:54;22.52;;;13.45;;
56037;SDS011;41907;47.848;9.000;2024-03-25T08:37:19;22.85;;;13.05;;
56037;SDS011;41907;47.848;9.000;2024-03-25T08:39:44;17.38;;;11.10;;
56037;SDS011;41907;47.848;9.000;2024-03-25T08:42:10;18.13;;;10.88;;
56037;SDS011;41907;47.848;9.000;2024-03-25T08:44:35;17.42;;;10.43;;
56037;SDS011;41907;47.848;9.000;2024-03-25T08:47:00;16.25;;;10.00;;
56037;SDS011;41907;47.848;9.000;2024-03-25T08:49:26;15.90;;;10.13;;
56037;SDS011;41907;47.848;9.000;2024-03-25T08:51:51;11.98;;;7.65;;
56037;SDS011;41907;47.848;9.000;2024-03-25T08:54:17;15.73;;;7.88;;
56037;SDS011;41907;47.848;9.000;2024-03-25T08:56:42;11.32;;;7.18;;
56037;SDS011;41907;47.848;9.000;2024-03-25T08:59:08;7.63;;;5.15;;
56037;SDS011;41907;47.848;9.000;2024-03-25T09:01:34;9.43;;;5.18;;
56037;SDS011;41907;47.848;9.000;2024-03-25T09:04:00;3.50;;;2.72;;
56037;SDS011;41907;47.848;9.000;2024-03-25T09:06:25;5.22;;;2.97;;
56037;SDS011;41907;47.848;9.000;2024-03-25T09:08:50;6.05;;;2.90;;
56037;SDS011;41907;47.848;9.000;2024-03-25T09:11:34;6.53;;;2.33;;
56037;SDS011;41907;47.848;9.000;2024-03-25T09:14:00;4.20;;;2.55;;
56037;SDS011;41907;47.848;9.000;2024-03-25T09:16:27;4.28;;;3.00;;
56037;SDS011;41907;47.848;9.000;2024-03-25T09:18:53;6.43;;;3.28;;
56037;SDS011;41907;47.848;9.000;2024-03-25T09:21:18;3.55;;;2.35;;
56037;SDS011;41907;47.848;9.000;2024-03-25T09:23:44;3.92;;;2.47;;
56037;SDS011;41907;47.848;9.000;2024-03-25T09:26:09;4.78;;;2.63;;
56037;SDS011;41907;47.848;9.000;2024-03-25T09:28:35;3.60;;;2.50;;
56037;SDS011;41907;47.848;9.000;2024-03-25T09:31:01;4.82;;;2.20;;
56037;SDS011;41907;47.848;9.000;2024-03-25T09:33:26;4.15;;;2.05;;
56037;SDS011;41907;47.848;9.000;2024-03-25T09:35:51;3.22;;;2.10;;
56037;SDS011;41907;47.848;9.000;2024-03-25T09:38:17;2.38;;;2.00;;
56037;SDS011;41907;47.848;9.000;2024-03-25T09:40:42;5.07;;;2.50;;
56037;SDS011;41907;47.848;9.000;2024-03-25T09:43:20;3.88;;;2.35;;
56037;SDS011;41907;47.848;9.000;2024-03-25T09:45:49;3.33;;;2.00;;
56037;SDS011;41907;47.848;9.000;2024-03-25T09:48:15;2.88;;;2.28;;
56037;SDS011;41907;47.848;9.000;2024-03-25T09:50:42;2.45;;;2.15;;
56037;SDS011;41907;47.848;9.000;2024-03-25T09:53:08;2.70;;;2.13;;
56037;SDS011;41907;47.848;9.000;2024-03-25T09:55:34;4.72;;;2.50;;
56037;SDS011;41907;47.848;9.000;2024-03-25T09:57:59;2.80;;;2.15;;
56037;SDS011;41907;47.848;9.000;2024-03-25T10:00:25;2.28;;;1.90;;
56037;SDS011;41907;47.848;9.000;2024-03-25T10:02:51;3.25;;;1.90;;
56037;SDS011;41907;47.848;9.000;2024-03-25T10:05:16;2.90;;;1.80;;
56037;SDS011;41907;47.848;9.000;2024-03-25T10:07:42;4.00;;;1.77;;
56037;SDS011;41907;47.848;9.000;2024-03-25T10:10:07;3.40;;;1.83;;
56037;SDS011;41907;47.848;9.000;2024-03-25T10:12:35;3.15;;;2.08;;
56037;SDS011;41907;47.848;9.000;2024-03-25T10:15:01;2.95;;;1.60;;
56037;SDS011;41907;47.848;9.000;2024-03-25T10:17:26;5.68;;;1.83;;
56037;SDS011;41907;47.848;9.000;2024-03-25T10:19:53;4.50;;;1.70;;
56037;SDS011;41907;47.848;9.000;2024-03-25T10:22:19;2.80;;;1.30;;
56037;SDS011;41907;47.848;9.000;2024-03-25T10:24:45;3.58;;;1.60;;
56037;SDS011;41907;47.848;9.000;2024-03-25T10:27:31;3.03;;;1.60;;
56037;SDS011;41907;47.848;9.000;2024-03-25T10:29:56;5.15;;;2.40;;
56037;SDS011;41907;47.848;9.000;2024-03-25T10:32:21;4.28;;;1.90;;
56037;SDS011;41907;47.848;9.000;2024-03-25T10:34:52;4.28;;;2.30;;
56037;SDS011;41907;47.848;9.000;2024-03-25T10:37:18;4.30;;;2.10;;
56037;SDS011;41907;47.848;9.000;2024-03-25T10:39:47;2.63;;;1.42;;
56037;SDS011;41907;47.848;9.000;2024-03-25T10:42:16;2.63;;;1.20;;
56037;SDS011;41907;47.848;9.000;2024-03-25T10:44:44;3.30;;;1.98;;
56037;SDS011;41907;47.848;9.000;2024-03-25T10:47:10;4.50;;;2.33;;
56037;SDS011;41907;47.848;9.000;2024-03-25T10:52:08;6.05;;;1.42;;
56037;SDS011;41907;47.848;9.000;2024-03-25T10:54:36;2.35;;;1.33;;
56037;SDS011;41907;47.848;9.000;2024-03-25T10:57:03;3.80;;;1.67;;
56037;SDS011;41907;47.848;9.000;2024-03-25T10:59:30;2.17;;;1.25;;
56037;SDS011;41907;47.848;9.000;2024-03-25T11:01:56;2.25;;;1.50;;
56037;SDS011;41907;47.848;9.000;2024-03-25T11:04:22;3.95;;;1.67;;
56037;SDS011;41907;47.848;9.000;2024-03-25T11:06:49;3.25;;;1.80;;
56037;SDS011;41907;47.848;9.000;2024-03-25T11:09:26;4.18;;;1.85;;
56037;SDS011;41907;47.848;9.000;2024-03-25T11:11:54;1.98;;;1.50;;
56037;SDS011;41907;47.848;9.000;2024-03-25T11:14:24;5.35;;;1.85;;
56037;SDS011;41907;47.848;9.000;2024-03-25T11:16:53;2.85;;;1.73;;
56037;SDS011;41907;47.848;9.000;2024-03-25T11:19:20;3.17;;;1.75;;
56037;SDS011;41907;47.848;9.000;2024-03-25T11:21:46;5.00;;;2.30;;
56037;SDS011;41907;47.848;9.000;2024-03-25T11:24:12;2.00;;;1.42;;
56037;SDS011;41907;47.848;9.000;2024-03-25T11:26:41;2.42;;;1.75;;
56037;SDS011;41907;47.848;9.000;2024-03-25T11:29:07;2.20;;;1.50;;
56037;SDS011;41907;47.848;9.000;2024-03-25T11:31:32;3.42;;;1.60;;
56037;SDS011;41907;47.848;9.000;2024-03-25T11:34:03;2.92;;;1.42;;
56037;SDS011;41907;47.848;9.000;2024-03-25T11:36:33;2.67;;;1.33;;
56037;SDS011;41907;47.848;9.000;2024-03-25T11:39:08;3.45;;;1.38;;
56037;SDS011;41907;47.848;9.000;2024-03-25T11:41:40;1.65;;;1.02;;
56037;SDS011;41907;47.848;9.000;2024-03-25T11:44:10;3.42;;;1.30;;
56037;SDS011;41907;47.848;9.000;2024-03-25T11:46:40;2.13;;;0.98;;
56037;SDS011;41907;47.848;9.000;2024-03-25T11:49:06;2.33;;;1.23;;
56037;SDS011;41907;47.848;9.000;2024-03-25T11:51:33;2.22;;;1.63;;
56037;SDS011;41907;47.848;9.000;2024-03-25T11:53:59;4.10;;;2.22;;
56037;SDS011;41907;47.848;9.000;2024-03-25T11:56:25;3.03;;;1.75;;
56037;SDS011;41907;47.848;9.000;2024-03-25T11:58:51;4.82;;;1.83;;
56037;SDS011;41907;47.848;9.000;2024-03-25T12:01:17;3.38;;;1.85;;
56037;SDS011;41907;47.848;9.000;2024-03-25T12:03:42;3.70;;;1.80;;
56037;SDS011;41907;47.848;9.000;2024-03-25T12:06:07;3.88;;;2.42;;
56037;SDS011;41907;47.848;9.000;2024-03-25T12:08:33;1.67;;;1.30;;
56037;SDS011;41907;47.848;9.000;2024-03-25T12:11:01;2.42;;;1.40;;
56037;SDS011;41907;47.848;9.000;2024-03-25T12:13:45;1.05;;;0.57;;
56037;SDS011;41907;47.848;9.000;2024-03-25T12:16:10;1.25;;;0.73;;
56037;SDS011;41907;47.848;9.000;2024-03-25T12:18:36;2.42;;;0.82;;
56037;SDS011;41907;47.848;9.000;2024-03-25T12:21:04;1.33;;;0.60;;
56037;SDS011;41907;47.848;9.000;2024-03-25T12:23:30;0.77;;;0.50;;
56037;SDS011;41907;47.848;9.000;2024-03-25T12:25:58;1.17;;;0.57;;
56037;SDS011;41907;47.848;9.000;2024-03-25T12:28:24;0.68;;;0.60;;
56037;SDS011;41907;47.848;9.000;2024-03-25T12:30:50;1.83;;;0.90;;
56037;SDS011;41907;47.848;9.000;2024-03-25T12:33:16;1.90;;;0.90;;
56037;SDS011;41907;47.848;9.000;2024-03-25T12:35:42;1.58;;;0.65;;
56037;SDS011;41907;47.848;9.000;2024-03-25T12:38:10;2.03;;;0.70;;
56037;SDS011;41907;47.848;9.000;2024-03-25T12:40:53;1.27;;;1.00;;
56037;SDS011;41907;47.848;9.000;2024-03-25T12:43:19;1.65;;;0.70;;
56037;SDS011;41907;47.848;9.000;2024-03-25T12:45:45;1.52;;;0.63;;
56037;SDS011;41907;47.848;9.000;2024-03-25T12:48:10;0.70;;;0.57;;
56037;SDS011;41907;47.848;9.000;2024-03-25T12:50:36;3.05;;;0.80;;
56037;SDS011;41907;47.848;9.000;2024-03-25T12:53:02;2.28;;;0.60;;
56037;SDS011;41907;47.848;9.000;2024-03-25T12:55:30;1.52;;;0.70;;
56037;SDS011;41907;47.848;9.000;2024-03-25T12:57:56;1.60;;;0.77;;
56037;SDS011;41907;47.848;9.000;2024-03-25T13:00:21;0.70;;;0.45;;
56037;SDS011;41907;47.848;9.000;2024-03-25T13:02:47;1.17;;;0.88;;
56037;SDS011;41907;47.848;9.000;2024-03-25T13:05:13;2.83;;;0.75;;
56037;SDS011;41907;47.848;9.000;2024-03-25T13:07:38;2.00;;;0.77;;
56037;SDS011;41907;47.848;9.000;2024-03-25T13:10:03;1.85;;;1.13;;
56037;SDS011;41907;47.848;9.000;2024-03-25T13:12:30;2.67;;;0.80;;
56037;SDS011;41907;47.848;9.000;2024-03-25T13:14:55;2.45;;;0.93;;
56037;SDS011;41907;47.848;9.000;2024-03-25T13:17:21;1.20;;;0.60;;
56037;SDS011;41907;47.848;9.000;2024-03-25T13:19:46;2.95;;;0.60;;
56037;SDS011;41907;47.848;9.000;2024-03-25T13:22:12;1.35;;;0.77;;
56037;SDS011;41907;47.848;9.000;2024-03-25T13:24:37;1.88;;;1.15;;
56037;SDS011;41907;47.848;9.000;2024-03-25T13:27:02;2.53;;;0.82;;
56037;SDS011;41907;47.848;9.000;2024-03-25T13:29:28;3.00;;;0.60;;
56037;SDS011;41907;47.848;9.000;2024-03-25T13:31:53;2.38;;;0.70;;
56037;SDS011;41907;47.848;9.000;2024-03-25T13:34:18;2.05;;;0.77;;
56037;SDS011;41907;47.848;9.000;2024-03-25T13:36:44;1.13;;;0.77;;
56037;SDS011;41907;47.848;9.000;2024-03-25T13:39:09;0.82;;;0.70;;
56037;SDS011;41907;47.848;9.000;2024-03-25T13:41:35;3.05;;;0.80;;
56037;SDS011;41907;47.848;9.000;2024-03-25T13:44:00;3.25;;;0.80;;
56037;SDS011;41907;47.848;9.000;2024-03-25T13:46:25;1.27;;;0.63;;
56037;SDS011;41907;47.848;9.000;2024-03-25T13:48:51;2.47;;;0.65;;
56037;SDS011;41907;47.848;9.000;2024-03-25T13:51:17;1.40;;;0.80;;
56037;SDS011;41907;47.848;9.000;2024-03-25T13:53:42;1.08;;;0.52;;
56037;SDS011;41907;47.848;9.000;2024-03-25T13:56:07;1.60;;;0.73;;
56037;SDS011;41907;47.848;9.000;2024-03-25T13:58:33;1.75;;;1.38;;
56037;SDS011;41907;47.848;9.000;2024-03-25T14:00:58;0.82;;;0.68;;
56037;SDS011;41907;47.848;9.000;2024-03-25T14:03:24;0.70;;;0.70;;
56037;SDS011;41907;47.848;9.000;2024-03-25T14:05:49;1.63;;;0.68;;
56037;SDS011;41907;47.848;9.000;2024-03-25T14:08:14;2.50;;;0.68;;
56037;SDS011;41907;47.848;9.000;2024-03-25T14:10:42;3.72;;;1.00;;
56037;SDS011;41907;47.848;9.000;2024-03-25T14:13:08;1.98;;;0.57;;
56037;SDS011;41907;47.848;9.000;2024-03-25T14:15:34;1.88;;;0.52;;
56037;SDS011;41907;47.848;9.000;2024-03-25T14:17:59;1.27;;;0.50;;
56037;SDS011;41907;47.848;9.000;2024-03-25T14:20:24;3.80;;;0.60;;
56037;SDS011;41907;47.848;9.000;2024-03-25T14:22:50;1.20;;;0.60;;
56037;SDS011;41907;47.848;9.000;2024-03-25T14:25:15;0.43;;;0.40;;
56037;SDS011;41907;47.848;9.000;2024-03-25T14:27:41;1.13;;;0.70;;
56037;SDS011;41907;47.848;9.000;2024-03-25T14:30:07;3.85;;;1.73;;
56037;SDS011;41907;47.848;9.000;2024-03-25T14:32:35;12.00;;;6.82;;
56037;SDS011;41907;47.848;9.000;2024-03-25T14:35:00;3.28;;;2.10;;
56037;SDS011;41907;47.848;9.000;2024-03-25T14:37:26;0.75;;;0.63;;